MMMZ/MZT METAR and TAF weather

Enter ICAO airport designator
Station Type Date Time Source
MMMZ METAR 2018/12/17 16:44 UTC NOAA

MMMZ 171644Z 09003KT 15SM BKN080 24/14 A3010 RMK 8/070 ISOL CI


Station Type Date Time Source
MMMZ Decoded METAR 2018/12/17 16:44 UTC NOAA

Mazatlan / G. Buelna, Mexico (MMMZ) 23-10N 106-16W
Dec 17, 2018 - 11:44 AM EST / 2018.12.17 1644 UTC
Wind: from the E (090 degrees) at 3 MPH (3 KT):0
Visibility: 15 mile(s):0
Sky conditions: mostly cloudy
Temperature: 75 F (24 C)
Dew Point: 57 F (14 C)
Relative Humidity: 53%
Pressure (altimeter): 30.1 in. Hg (1019 hPa)
ob: MMMZ 171644Z 09003KT 15SM BKN080 24/14 A3010 RMK 8/070 ISOL CI
cycle: 16

Station Type Date Time Source
MMMZ TAF 2018/12/17 18:59 UTC NOAA

TAF MMMZ 171656Z 1718/1824 32010KT P6SM BKN260 TX28/1721Z TN17/1812Z
BECMG 1803/1804 00000KT
FM181600 02010KT P6SM SCT260


Example: see airport list